Time;durP1;ratioP1;P1;durP2;ratioP2;P2;SDS_P1;SDS_P2;PMS_P1;PMS_P2;Temp;Humidity;BMP_temperature;BMP_pressure;BME280_temperature;BME280_humidity;BME280_pressure;Samples;Min_cycle;Max_cycle;Signal;HPM_P1;HPM_P2
2021/01/21 00:01:20;;;;;;;9.88;8.95;;;10.30;99.90;;;;;;4977485;28;20235;-55
2021/01/21 00:03:50;;;;;;;10.48;9.38;;;10.30;99.90;;;;;;4969988;28;20234;-53
2021/01/21 00:06:20;;;;;;;10.68;9.57;;;10.20;99.90;;;;;;4969569;28;20220;-57
2021/01/21 00:08:50;;;;;;;11.68;9.60;;;10.30;99.90;;;;;;4982363;28;20631;-54
2021/01/21 00:11:21;;;;;;;10.90;9.77;;;10.20;99.90;;;;;;4981788;28;20242;-55
2021/01/21 00:13:51;;;;;;;9.90;8.85;;;10.00;99.90;;;;;;4982676;28;20243;-56
2021/01/21 00:16:23;;;;;;;10.45;9.55;;;10.10;99.90;;;;;;4987980;28;20265;-56
2021/01/21 00:18:53;;;;;;;10.75;9.68;;;10.10;99.90;;;;;;4965429;28;20212;-54
2021/01/21 00:21:23;;;;;;;12.85;10.10;;;10.00;99.90;;;;;;4970630;28;20277;-56
2021/01/21 00:23:53;;;;;;;10.82;9.73;;;10.00;99.90;;;;;;4976533;28;20193;-54
2021/01/21 00:26:23;;;;;;;10.98;9.98;;;10.00;99.90;;;;;;4977362;28;20215;-54
2021/01/21 00:28:53;;;;;;;10.50;9.60;;;9.90;99.90;;;;;;4981863;28;20261;-50
2021/01/21 00:31:24;;;;;;;19.23;11.02;;;9.80;99.90;;;;;;4975141;28;20198;-55
2021/01/21 00:33:55;;;;;;;11.55;10.48;;;9.70;99.90;;;;;;4978675;28;20341;-51
2021/01/21 00:36:25;;;;;;;11.00;9.93;;;9.80;99.90;;;;;;4978374;28;20213;-55
2021/01/21 00:38:55;;;;;;;11.70;10.45;;;9.90;99.90;;;;;;4979432;28;20276;-53
2021/01/21 00:41:25;;;;;;;12.65;11.45;;;9.90;99.90;;;;;;4982044;28;20640;-52
2021/01/21 00:43:55;;;;;;;13.15;11.95;;;9.80;99.90;;;;;;4982101;28;20210;-52
2021/01/21 00:46:26;;;;;;;12.10;10.90;;;9.70;99.90;;;;;;4974758;28;20628;-51
2021/01/21 00:48:56;;;;;;;12.48;11.18;;;9.60;99.90;;;;;;4979635;28;20209;-53
2021/01/21 00:51:27;;;;;;;12.45;10.65;;;9.50;99.90;;;;;;4967705;28;20294;-54
2021/01/21 00:53:57;;;;;;;12.93;11.20;;;9.40;99.90;;;;;;4982806;28;20365;-50
2021/01/21 00:56:28;;;;;;;10.75;9.60;;;9.40;99.90;;;;;;4971558;28;20216;-53
2021/01/21 00:58:58;;;;;;;11.00;10.00;;;9.30;99.90;;;;;;4979877;28;20215;-53
2021/01/21 01:01:29;;;;;;;9.32;8.43;;;9.40;99.90;;;;;;4979845;28;20210;-55
2021/01/21 01:03:59;;;;;;;9.95;8.95;;;9.40;99.90;;;;;;4964605;28;20286;-54
2021/01/21 01:06:29;;;;;;;10.80;8.60;;;9.40;99.90;;;;;;4965041;28;20288;-55
2021/01/21 01:09:02;;;;;;;9.40;8.50;;;9.40;99.90;;;;;;4980138;28;20218;-55
2021/01/21 01:11:33;;;;;;;9.90;9.02;;;9.40;99.90;;;;;;4966941;28;20248;-54
2021/01/21 01:14:04;;;;;;;9.93;8.93;;;9.40;99.90;;;;;;4980790;28;20233;-54
2021/01/21 01:16:45;;;;;;;10.07;9.18;;;9.30;99.90;;;;;;4982232;28;20210;-55
2021/01/21 01:19:15;;;;;;;9.77;8.63;;;9.20;99.90;;;;;;4968502;28;20213;-54
2021/01/21 01:21:45;;;;;;;9.18;8.25;;;9.20;99.90;;;;;;4969049;28;20285;-52
2021/01/21 01:24:15;;;;;;;10.10;7.78;;;9.30;99.90;;;;;;4992521;28;20209;-52
2021/01/21 01:26:46;;;;;;;11.32;9.35;;;9.20;99.90;;;;;;4985276;28;20194;-52
2021/01/21 01:29:19;;;;;;;10.45;9.45;;;9.20;99.90;;;;;;4967542;28;20203;-55
2021/01/21 01:31:51;;;;;;;10.60;9.70;;;9.30;99.90;;;;;;4981182;28;20237;-56
2021/01/21 01:34:21;;;;;;;9.43;8.43;;;9.30;99.90;;;;;;4971749;28;20208;-55
2021/01/21 01:36:53;;;;;;;10.30;9.43;;;9.40;99.90;;;;;;4967310;28;20677;-56
2021/01/21 01:39:24;;;;;;;9.95;9.10;;;9.50;99.90;;;;;;4983808;28;20203;-57
2021/01/21 01:41:54;;;;;;;9.20;8.30;;;9.60;99.90;;;;;;4976213;28;20256;-56
2021/01/21 01:44:25;;;;;;;9.95;8.95;;;9.50;99.90;;;;;;4969530;28;20207;-57
2021/01/21 01:46:56;;;;;;;11.18;10.07;;;9.40;99.90;;;;;;4968073;28;20241;-56
2021/01/21 01:49:28;;;;;;;11.18;9.27;;;9.40;99.90;;;;;;4985487;28;20262;-55
2021/01/21 01:52:05;;;;;;;11.00;9.93;;;9.40;99.90;;;;;;4983030;28;20205;-56
2021/01/21 01:54:36;;;;;;;11.68;10.45;;;9.40;99.90;;;;;;4981919;28;20206;-56
2021/01/21 01:57:06;;;;;;;13.48;10.50;;;9.30;99.90;;;;;;4985501;28;20205;-55
2021/01/21 01:59:37;;;;;;;11.55;10.45;;;9.30;99.90;;;;;;4986275;28;20215;-53
2021/01/21 02:02:11;;;;;;;15.52;13.18;;;9.30;99.90;;;;;;4985255;28;20206;-54
2021/01/21 02:04:42;;;;;;;14.45;13.10;;;9.30;99.90;;;;;;4972687;28;20828;-53
2021/01/21 02:07:12;;;;;;;16.27;13.50;;;9.30;99.90;;;;;;4968742;28;20215;-56
2021/01/21 02:09:43;;;;;;;16.98;15.25;;;9.40;99.90;;;;;;4969076;28;20206;-57
2021/01/21 02:12:30;;;;;;;16.90;14.90;;;9.30;99.90;;;;;;4984507;28;20300;-55
2021/01/21 02:15:08;;;;;;;13.95;12.45;;;9.20;99.90;;;;;;4982592;28;20214;-51
2021/01/21 02:17:46;;;;;;;14.25;12.73;;;9.20;99.90;;;;;;4978990;28;20285;-54
2021/01/21 02:20:51;;;;;;;14.25;12.75;;;9.10;99.90;;;;;;4982417;28;20228;-53
2021/01/21 02:24:03;;;;;;;13.40;11.68;;;9.00;99.90;;;;;;4957186;28;20344;-54
2021/01/21 02:26:38;;;;;;;16.20;12.90;;;9.10;99.90;;;;;;4905779;29;20233;-54
2021/01/21 02:29:13;;;;;;;14.88;11.77;;;9.20;99.90;;;;;;4906799;29;20208;-51
2021/01/21 02:32:15;;;;;;;16.45;13.15;;;9.10;99.90;;;;;;4905567;29;20278;-52
2021/01/21 02:35:00;;;;;;;15.93;11.70;;;9.10;99.90;;;;;;4906505;29;20299;-54
2021/01/21 02:37:31;;;;;;;13.45;11.88;;;9.10;99.90;;;;;;4905958;29;20204;-52
2021/01/21 02:40:05;;;;;;;12.85;11.43;;;9.10;99.90;;;;;;4912463;29;20231;-54
2021/01/21 02:42:45;;;;;;;14.10;12.30;;;9.00;99.90;;;;;;4897721;29;20192;-48
2021/01/21 02:45:17;;;;;;;12.57;11.30;;;8.90;99.90;;;;;;4904877;29;20320;-50
2021/01/21 02:47:47;;;;;;;13.40;12.30;;;8.90;99.90;;;;;;4909079;29;20222;-52
2021/01/21 02:50:19;;;;;;;15.25;13.80;;;8.90;99.90;;;;;;4914183;29;20681;-53
2021/01/21 02:52:56;;;;;;;13.45;12.10;;;9.00;99.90;;;;;;4923689;29;20220;-53
2021/01/21 02:55:32;;;;;;;13.90;12.40;;;8.90;99.90;;;;;;4908792;29;20207;-52
2021/01/21 02:58:12;;;;;;;14.63;12.40;;;9.10;99.90;;;;;;4966373;28;20201;-54
2021/01/21 03:00:44;;;;;;;14.38;12.27;;;9.10;99.90;;;;;;4974450;28;20603;-56
2021/01/21 03:03:17;;;;;;;14.73;12.93;;;9.00;99.90;;;;;;4987239;28;20566;-55
2021/01/21 03:05:57;;;;;;;13.07;11.80;;;9.00;99.90;;;;;;4976901;28;20204;-52
2021/01/21 03:08:40;;;;;;;16.45;12.95;;;8.90;99.90;;;;;;4980754;28;20215;-55
2021/01/21 03:11:14;;;;;;;17.95;13.63;;;8.80;99.90;;;;;;4965220;28;20313;-53
2021/01/21 03:13:46;;;;;;;13.65;12.30;;;8.70;99.90;;;;;;4976262;28;20276;-56
2021/01/21 03:16:17;;;;;;;13.23;11.93;;;8.60;99.90;;;;;;4983346;28;20284;-49
2021/01/21 03:18:53;;;;;;;13.52;12.18;;;8.50;99.90;;;;;;4978064;28;20190;-53
2021/01/21 03:21:24;;;;;;;21.55;16.00;;;8.50;99.90;;;;;;4985572;28;20201;-51
2021/01/21 03:23:54;;;;;;;19.75;16.38;;;8.50;99.90;;;;;;4974813;28;20241;-55
2021/01/21 03:26:24;;;;;;;19.25;15.52;;;8.70;99.90;;;;;;4982802;28;20236;-54
2021/01/21 03:28:54;;;;;;;17.73;14.60;;;8.70;99.90;;;;;;4977802;28;20294;-55
2021/01/21 03:31:25;;;;;;;20.42;17.20;;;8.60;99.90;;;;;;4981570;28;20205;-57
2021/01/21 03:33:55;;;;;;;22.55;16.80;;;8.60;99.90;;;;;;4967801;28;20230;-56
2021/01/21 03:36:27;;;;;;;20.58;15.50;;;8.60;99.90;;;;;;4980263;28;20206;-56
2021/01/21 03:38:57;;;;;;;23.65;17.35;;;8.60;99.90;;;;;;4979742;28;20210;-56
2021/01/21 03:41:28;;;;;;;22.17;17.90;;;8.50;99.90;;;;;;4982369;28;20256;-58
2021/01/21 03:43:58;;;;;;;17.30;15.13;;;8.50;99.90;;;;;;4976219;28;20201;-57
2021/01/21 03:46:28;;;;;;;17.52;15.35;;;8.60;99.90;;;;;;4975069;28;20204;-54
2021/01/21 03:48:58;;;;;;;20.02;15.77;;;8.60;99.90;;;;;;4984636;28;20236;-54
2021/01/21 03:51:30;;;;;;;17.27;14.93;;;8.50;99.90;;;;;;4980228;28;20202;-55
2021/01/21 03:54:00;;;;;;;18.10;16.20;;;8.40;99.90;;;;;;4984022;28;20291;-55
2021/01/21 03:56:30;;;;;;;21.40;17.23;;;8.40;99.90;;;;;;4982441;28;20236;-51
2021/01/21 03:59:00;;;;;;;22.13;16.15;;;8.40;99.90;;;;;;4983863;28;20205;-52
2021/01/21 04:01:30;;;;;;;18.50;14.65;;;8.50;99.90;;;;;;4980495;28;20319;-56
2021/01/21 04:04:00;;;;;;;17.77;16.02;;;8.50;99.90;;;;;;4971351;28;20269;-55
2021/01/21 04:06:31;;;;;;;16.98;15.15;;;8.60;99.90;;;;;;4972378;28;20210;-56
2021/01/21 04:09:03;;;;;;;17.52;15.70;;;8.50;99.90;;;;;;4964934;28;20592;-56
2021/01/21 04:14:21;;;;;;;22.60;19.63;;;8.70;99.90;;;;;;4980009;28;20232;-55
2021/01/21 04:16:51;;;;;;;25.05;21.20;;;8.80;99.90;;;;;;4971986;28;20209;-58
2021/01/21 04:19:22;;;;;;;21.95;19.42;;;8.90;99.90;;;;;;4966493;28;20208;-55
2021/01/21 04:21:53;;;;;;;21.90;18.60;;;8.80;99.90;;;;;;4974052;28;20295;-55
2021/01/21 04:24:23;;;;;;;22.45;19.25;;;8.60;99.90;;;;;;4979782;28;20204;-58
2021/01/21 04:26:53;;;;;;;20.33;18.25;;;8.60;99.90;;;;;;4980934;28;20201;-55
2021/01/21 04:29:23;;;;;;;22.35;19.95;;;8.60;99.90;;;;;;4977571;28;20194;-54
2021/01/21 04:31:54;;;;;;;20.80;18.50;;;8.50;99.90;;;;;;4982116;28;20234;-54
2021/01/21 04:34:24;;;;;;;20.95;18.73;;;8.50;99.90;;;;;;4974490;28;20232;-54
2021/01/21 04:36:55;;;;;;;21.42;19.20;;;8.50;99.90;;;;;;4970978;28;20267;-54
2021/01/21 04:39:25;;;;;;;21.20;18.90;;;8.50;99.90;;;;;;4984880;28;20211;-56
2021/01/21 04:41:55;;;;;;;24.40;21.02;;;8.50;99.90;;;;;;4982455;28;20215;-56
2021/01/21 04:44:25;;;;;;;21.35;19.15;;;8.50;99.90;;;;;;4983681;28;20198;-55
2021/01/21 04:46:56;;;;;;;21.63;18.85;;;8.50;99.90;;;;;;4970054;28;20272;-56
2021/01/21 04:49:29;;;;;;;31.10;26.38;;;8.60;99.90;;;;;;4985705;28;20216;-53
2021/01/21 04:52:03;;;;;;;31.98;28.50;;;8.70;99.90;;;;;;4979405;28;20349;-56
2021/01/21 04:54:40;;;;;;;31.60;28.30;;;8.80;99.90;;;;;;4974728;28;20297;-55
2021/01/21 04:57:13;;;;;;;26.98;23.75;;;8.80;99.90;;;;;;4975184;28;20236;-55
2021/01/21 04:59:44;;;;;;;25.83;22.83;;;8.70;99.90;;;;;;4980754;28;20196;-55
2021/01/21 05:02:15;;;;;;;25.25;22.63;;;8.50;99.90;;;;;;4985635;28;20264;-55
2021/01/21 05:04:46;;;;;;;25.98;22.42;;;8.50;99.90;;;;;;4971471;28;20209;-55
2021/01/21 05:07:18;;;;;;;23.27;19.95;;;8.60;99.90;;;;;;4978741;28;20206;-55
2021/01/21 05:09:48;;;;;;;23.13;20.73;;;8.40;99.90;;;;;;4968287;28;20205;-54
2021/01/21 05:12:19;;;;;;;23.88;20.20;;;8.50;99.90;;;;;;4977904;28;20287;-55
2021/01/21 05:14:49;;;;;;;25.13;19.95;;;8.50;99.90;;;;;;4975274;28;20233;-55
2021/01/21 05:17:19;;;;;;;23.98;19.98;;;8.30;99.90;;;;;;4981782;28;20213;-54
2021/01/21 05:19:51;;;;;;;22.20;19.95;;;8.20;99.90;;;;;;4978249;28;20260;-54
2021/01/21 05:22:23;;;;;;;26.90;20.20;;;8.30;99.90;;;;;;4976408;28;20318;-56
2021/01/21 05:24:53;;;;;;;26.88;19.70;;;8.40;99.90;;;;;;4980139;28;20211;-56
2021/01/21 05:27:24;;;;;;;23.13;20.05;;;8.40;99.90;;;;;;4974005;28;20197;-54
2021/01/21 05:29:54;;;;;;;22.33;19.95;;;8.30;99.90;;;;;;4986394;28;20196;-55
2021/01/21 05:32:25;;;;;;;32.08;20.08;;;8.20;99.90;;;;;;4976488;28;20679;-53
2021/01/21 05:34:55;;;;;;;22.83;18.38;;;8.20;99.90;;;;;;4968125;28;20234;-56
2021/01/21 05:37:28;;;;;;;21.70;19.02;;;8.10;99.90;;;;;;4978322;28;20208;-56
2021/01/21 05:39:59;;;;;;;20.52;16.65;;;8.20;99.90;;;;;;4983586;28;20593;-55
2021/01/21 05:42:29;;;;;;;23.65;17.05;;;8.10;99.90;;;;;;4977476;28;20249;-56
2021/01/21 05:45:01;;;;;;;19.55;17.33;;;8.10;99.90;;;;;;4981123;28;20204;-53
2021/01/21 05:47:32;;;;;;;22.63;17.77;;;8.10;99.90;;;;;;4980562;28;20287;-55
2021/01/21 05:50:03;;;;;;;19.52;17.40;;;8.10;99.90;;;;;;4983897;28;20209;-54
2021/01/21 05:52:37;;;;;;;20.88;16.25;;;8.20;99.90;;;;;;4973762;28;20213;-55
2021/01/21 05:55:09;;;;;;;18.65;16.50;;;8.10;99.90;;;;;;4973399;28;20215;-53
2021/01/21 05:57:40;;;;;;;19.55;17.45;;;8.10;99.90;;;;;;4973985;28;20197;-55
2021/01/21 06:00:11;;;;;;;20.33;18.25;;;8.20;99.90;;;;;;4985228;28;20197;-55
2021/01/21 06:02:41;;;;;;;19.35;17.25;;;8.10;99.90;;;;;;4983419;28;20209;-53
2021/01/21 06:05:18;;;;;;;19.35;16.90;;;8.10;99.90;;;;;;4972879;28;20217;-55
2021/01/21 06:07:51;;;;;;;23.98;17.92;;;8.20;99.90;;;;;;4977058;28;20204;-55
2021/01/21 06:10:22;;;;;;;22.02;19.52;;;8.20;99.90;;;;;;4982170;28;20208;-54
2021/01/21 06:15:43;;;;;;;21.90;19.00;;;8.00;99.90;;;;;;4978733;28;20209;-56
2021/01/21 06:18:13;;;;;;;23.08;18.08;;;8.00;99.90;;;;;;4973094;28;20347;-54
2021/01/21 06:20:43;;;;;;;21.58;16.48;;;7.90;99.90;;;;;;4983948;28;20208;-55
2021/01/21 06:23:19;;;;;;;18.98;16.70;;;8.00;99.90;;;;;;4976023;28;20209;-51
2021/01/21 06:25:51;;;;;;;18.25;16.35;;;8.10;99.90;;;;;;4979794;28;20291;-55
2021/01/21 06:28:23;;;;;;;22.23;16.25;;;8.10;99.90;;;;;;4967744;28;20224;-55
2021/01/21 06:30:55;;;;;;;20.90;16.20;;;8.10;99.90;;;;;;4983252;28;20662;-54
2021/01/21 06:33:29;;;;;;;18.20;16.30;;;8.20;99.90;;;;;;4976773;28;20270;-55
2021/01/21 06:36:03;;;;;;;18.52;16.42;;;8.10;99.90;;;;;;4959777;28;20581;-54
2021/01/21 06:38:40;;;;;;;20.40;17.15;;;8.00;99.90;;;;;;4983187;28;20209;-55
2021/01/21 06:41:15;;;;;;;21.88;16.85;;;7.90;99.90;;;;;;4980615;28;20208;-53
2021/01/21 06:43:47;;;;;;;25.35;16.10;;;7.80;99.90;;;;;;4972941;28;20207;-56
2021/01/21 06:46:17;;;;;;;18.48;16.52;;;7.90;99.90;;;;;;4977422;28;20212;-56
2021/01/21 06:48:49;;;;;;;17.42;15.52;;;8.00;99.90;;;;;;4971004;28;20268;-54
2021/01/21 06:51:20;;;;;;;19.17;15.20;;;8.00;99.90;;;;;;4978261;28;20232;-53
2021/01/21 06:53:54;;;;;;;18.25;14.95;;;8.00;99.90;;;;;;4976047;28;20232;-55
2021/01/21 06:56:33;;;;;;;21.00;15.77;;;8.00;99.90;;;;;;4976806;28;20201;-55
2021/01/21 06:59:03;;;;;;;16.88;15.27;;;8.00;99.90;;;;;;4976537;28;20196;-56
2021/01/21 07:01:46;;;;;;;18.23;15.43;;;8.00;99.90;;;;;;4981837;28;20220;-55
2021/01/21 07:04:27;;;;;;;19.10;16.20;;;8.00;99.90;;;;;;4977051;28;20233;-54
2021/01/21 07:07:16;;;;;;;22.63;15.68;;;8.10;99.90;;;;;;4975988;28;20196;-54
2021/01/21 07:09:48;;;;;;;22.77;20.38;;;8.10;99.90;;;;;;4982850;28;20339;-54
2021/01/21 07:12:38;;;;;;;23.00;20.60;;;8.00;99.90;;;;;;4972362;28;20232;-54
2021/01/21 07:15:11;;;;;;;25.83;20.77;;;8.00;99.90;;;;;;4978145;28;20260;-56
2021/01/21 07:17:43;;;;;;;21.70;19.52;;;8.00;99.90;;;;;;4978652;28;20257;-54
2021/01/21 07:20:14;;;;;;;20.75;18.85;;;8.00;99.90;;;;;;4974606;28;20204;-55
2021/01/21 07:22:49;;;;;;;21.20;18.55;;;7.90;99.90;;;;;;4972089;28;20229;-54
2021/01/21 07:25:28;;;;;;;22.42;20.13;;;7.70;99.90;;;;;;4973102;28;20289;-55
2021/01/21 07:27:58;;;;;;;22.45;20.17;;;7.70;99.90;;;;;;4970907;28;20200;-54
2021/01/21 07:30:28;;;;;;;23.13;20.73;;;7.80;99.90;;;;;;4981347;28;20239;-54
2021/01/21 07:33:23;;;;;;;24.55;21.95;;;7.90;99.90;;;;;;4970679;28;20211;-54
2021/01/21 07:35:54;;;;;;;22.40;20.08;;;8.00;99.90;;;;;;4980345;28;20211;-54
2021/01/21 07:38:57;;;;;;;24.67;20.42;;;8.10;99.90;;;;;;4982924;28;20211;-54
2021/01/21 07:41:54;;;;;;;24.27;21.67;;;8.10;99.90;;;;;;4891904;29;20238;-55
2021/01/21 07:44:44;;;;;;;25.30;22.60;;;8.10;99.90;;;;;;4896091;29;20334;-55
2021/01/21 07:47:29;;;;;;;26.88;24.17;;;8.10;99.90;;;;;;4891803;29;20211;-55
2021/01/21 07:50:33;;;;;;;26.15;23.42;;;8.10;99.90;;;;;;4892280;29;20404;-55
2021/01/21 07:53:07;;;;;;;27.83;24.40;;;8.00;99.90;;;;;;4891006;29;20315;-54
2021/01/21 07:55:38;;;;;;;27.20;22.73;;;7.80;99.90;;;;;;4894977;29;20207;-50
2021/01/21 07:58:30;;;;;;;26.63;23.80;;;7.80;99.90;;;;;;4894451;29;20550;-54
2021/01/21 08:01:01;;;;;;;26.90;24.05;;;7.70;99.90;;;;;;4897087;29;20217;-54
2021/01/21 08:03:33;;;;;;;28.50;23.77;;;7.70;99.90;;;;;;4894578;29;20212;-55
2021/01/21 08:06:15;;;;;;;26.15;23.50;;;7.70;99.90;;;;;;4893803;29;20219;-53
2021/01/21 08:08:47;;;;;;;26.13;23.42;;;7.90;99.90;;;;;;4891088;29;20796;-54
2021/01/21 08:11:55;;;;;;;26.10;23.13;;;7.90;99.90;;;;;;4909851;28;20261;-54
2021/01/21 08:14:33;;;;;;;24.70;22.25;;;7.90;99.90;;;;;;4983631;28;20224;-52
2021/01/21 08:17:05;;;;;;;23.83;21.33;;;7.70;99.90;;;;;;4983203;28;20638;-54
2021/01/21 08:19:40;;;;;;;27.48;21.25;;;7.60;99.90;;;;;;4981225;28;20208;-52
2021/01/21 08:22:10;;;;;;;20.75;18.65;;;7.60;99.90;;;;;;4971532;28;20591;-53
2021/01/21 08:24:58;;;;;;;20.80;18.52;;;7.60;99.90;;;;;;4983369;28;20208;-52
2021/01/21 08:27:44;;;;;;;20.20;18.10;;;7.70;99.90;;;;;;4980596;28;20208;-54
2021/01/21 08:30:20;;;;;;;20.05;17.83;;;7.70;99.90;;;;;;4964452;28;20245;-53
2021/01/21 08:32:58;;;;;;;20.48;17.48;;;7.60;99.90;;;;;;4974469;28;20203;-54
2021/01/21 08:35:33;;;;;;;19.00;17.00;;;7.60;99.90;;;;;;4971692;28;20225;-53
2021/01/21 08:38:22;;;;;;;19.80;17.90;;;7.70;99.90;;;;;;4970670;28;20244;-54
2021/01/21 08:40:53;;;;;;;21.63;19.25;;;7.80;99.90;;;;;;4977610;28;20259;-54
2021/01/21 08:43:24;;;;;;;21.05;18.88;;;7.70;99.90;;;;;;4986734;28;20209;-53
2021/01/21 08:45:56;;;;;;;20.35;18.25;;;7.70;99.90;;;;;;4984092;28;20201;-54
2021/01/21 08:48:27;;;;;;;22.02;18.80;;;7.80;99.90;;;;;;4984174;28;20642;-54
2021/01/21 08:50:57;;;;;;;21.48;18.42;;;7.80;99.90;;;;;;4986336;28;20263;-52
2021/01/21 08:53:30;;;;;;;22.30;19.05;;;7.80;99.90;;;;;;4987284;28;20271;-52
2021/01/21 08:56:02;;;;;;;22.20;19.80;;;7.70;99.90;;;;;;4985539;28;20267;-53
2021/01/21 08:58:33;;;;;;;19.45;17.60;;;7.70;99.90;;;;;;4986894;28;20216;-54
2021/01/21 09:01:06;;;;;;;20.98;18.77;;;7.60;99.90;;;;;;4983295;28;20197;-53
2021/01/21 09:03:38;;;;;;;23.65;20.30;;;7.60;99.90;;;;;;4986238;28;20230;-50
2021/01/21 09:06:09;;;;;;;22.08;19.88;;;7.70;99.90;;;;;;4970916;28;20220;-54
2021/01/21 09:08:51;;;;;;;23.02;20.70;;;7.60;99.90;;;;;;4979157;28;20193;-53
2021/01/21 09:11:28;;;;;;;20.27;18.17;;;7.50;99.90;;;;;;4966577;28;20236;-54
2021/01/21 09:14:00;;;;;;;22.55;20.40;;;7.50;99.90;;;;;;4971697;28;20233;-54
2021/01/21 09:16:49;;;;;;;22.42;20.20;;;7.50;99.90;;;;;;4982849;28;20198;-52
2021/01/21 09:19:40;;;;;;;23.02;20.83;;;7.50;99.90;;;;;;4970019;28;20289;-53
2021/01/21 09:22:11;;;;;;;26.38;23.63;;;7.40;99.90;;;;;;4976134;28;20779;-52
2021/01/21 09:25:01;;;;;;;27.48;24.67;;;7.50;99.90;;;;;;4978227;28;20259;-50
2021/01/21 09:27:33;;;;;;;27.98;25.08;;;7.60;99.90;;;;;;4983769;28;20220;-54
2021/01/21 09:30:04;;;;;;;28.60;25.80;;;7.60;99.90;;;;;;4972999;28;20198;-54
2021/01/21 09:32:37;;;;;;;24.65;22.08;;;7.50;99.90;;;;;;4977079;28;20242;-53
2021/01/21 09:35:09;;;;;;;24.85;22.20;;;7.40;99.90;;;;;;4986032;28;20236;-53
2021/01/21 09:37:40;;;;;;;24.58;22.15;;;7.40;99.90;;;;;;4974960;28;20256;-54
2021/01/21 09:40:12;;;;;;;24.00;21.70;;;7.40;99.90;;;;;;4971004;28;20200;-54
2021/01/21 09:42:42;;;;;;;23.45;21.17;;;7.40;99.90;;;;;;4984516;28;20209;-54
2021/01/21 09:45:15;;;;;;;24.20;21.90;;;7.40;99.90;;;;;;4986022;28;20200;-54
2021/01/21 09:47:46;;;;;;;23.42;20.95;;;7.40;99.90;;;;;;4982270;28;20212;-54
2021/01/21 09:50:18;;;;;;;25.08;20.67;;;7.40;99.90;;;;;;4967203;28;20213;-51
2021/01/21 09:52:49;;;;;;;21.42;19.23;;;7.30;99.90;;;;;;4974580;28;20205;-54
2021/01/21 09:55:20;;;;;;;21.67;19.15;;;7.30;99.90;;;;;;4985567;28;20228;-55
2021/01/21 09:57:50;;;;;;;20.90;18.65;;;7.20;99.90;;;;;;4984628;28;20522;-54
2021/01/21 10:00:21;;;;;;;22.23;20.05;;;7.20;99.90;;;;;;4983461;28;20202;-54
2021/01/21 10:02:52;;;;;;;21.00;18.90;;;7.20;99.90;;;;;;4976677;28;20213;-54
2021/01/21 10:05:23;;;;;;;21.30;19.15;;;7.20;99.90;;;;;;4973999;28;20204;-50
2021/01/21 10:07:53;;;;;;;22.00;19.70;;;7.20;99.90;;;;;;4969000;28;20212;-52
2021/01/21 10:10:23;;;;;;;19.83;17.73;;;7.20;99.90;;;;;;4984565;28;20259;-55
2021/01/21 10:12:53;;;;;;;21.42;19.20;;;7.20;99.90;;;;;;4984600;28;20256;-54
2021/01/21 10:15:23;;;;;;;21.00;18.58;;;7.30;99.90;;;;;;4985262;28;20232;-51
2021/01/21 10:17:54;;;;;;;22.05;18.92;;;7.10;99.90;;;;;;4984137;28;20216;-55
2021/01/21 10:20:24;;;;;;;21.70;19.40;;;7.10;99.90;;;;;;4982656;28;20205;-55
2021/01/21 10:22:54;;;;;;;21.65;19.35;;;7.10;99.90;;;;;;4965877;28;20260;-55
2021/01/21 10:25:25;;;;;;;21.42;19.13;;;7.10;99.90;;;;;;4975671;28;20200;-55
2021/01/21 10:27:55;;;;;;;20.23;17.27;;;7.10;99.90;;;;;;4984474;28;20264;-54
2021/01/21 10:30:26;;;;;;;18.67;16.88;;;7.20;99.90;;;;;;4983359;28;20213;-55
2021/01/21 10:32:57;;;;;;;18.48;16.58;;;7.20;99.90;;;;;;4978771;28;20234;-55
2021/01/21 10:35:29;;;;;;;18.33;16.38;;;7.10;99.90;;;;;;4981032;28;20319;-55
2021/01/21 10:37:59;;;;;;;17.70;15.23;;;7.10;99.90;;;;;;4976928;28;20252;-55
2021/01/21 10:40:29;;;;;;;16.83;15.07;;;7.10;99.90;;;;;;4973117;28;20193;-53
2021/01/21 10:42:59;;;;;;;17.90;16.00;;;7.10;99.90;;;;;;4965256;28;20305;-53
2021/01/21 10:45:29;;;;;;;17.65;15.95;;;7.00;99.90;;;;;;4983145;28;20201;-53
2021/01/21 10:48:00;;;;;;;16.83;15.05;;;7.00;99.90;;;;;;4980017;28;20197;-55
2021/01/21 10:50:30;;;;;;;19.42;15.45;;;7.00;99.90;;;;;;4973484;28;20535;-54
2021/01/21 10:53:00;;;;;;;16.40;14.80;;;7.00;99.90;;;;;;4965054;28;20197;-55
2021/01/21 10:55:32;;;;;;;18.20;15.90;;;7.10;99.90;;;;;;4968548;28;20216;-54
2021/01/21 10:58:04;;;;;;;17.67;15.85;;;7.00;99.90;;;;;;4983482;28;20208;-52
2021/01/21 11:00:34;;;;;;;18.48;16.58;;;7.10;99.90;;;;;;4984390;28;20305;-48
2021/01/21 11:03:06;;;;;;;17.83;15.98;;;7.00;99.90;;;;;;4981311;28;20204;-46
2021/01/21 11:05:36;;;;;;;19.33;17.38;;;7.00;99.90;;;;;;4982648;28;20669;-51
2021/01/21 11:08:07;;;;;;;17.83;15.88;;;7.00;99.90;;;;;;4979337;28;20256;-49
2021/01/21 11:10:37;;;;;;;21.63;16.60;;;7.00;99.90;;;;;;4971333;28;20557;-53
2021/01/21 11:13:11;;;;;;;18.40;16.30;;;6.90;99.90;;;;;;4980623;28;20247;-50
2021/01/21 11:15:40;;;;;;;18.55;16.58;;;6.90;99.90;;;;;;4983548;28;20232;-48
2021/01/21 11:18:14;;;;;;;17.67;15.88;;;6.90;99.90;;;;;;4982600;28;20292;-51
2021/01/21 11:20:45;;;;;;;17.77;15.98;;;6.90;99.90;;;;;;4984217;28;20213;-51
2021/01/21 11:23:15;;;;;;;15.25;13.65;;;6.90;99.90;;;;;;4983051;28;20208;-52
2021/01/21 11:25:45;;;;;;;17.17;15.25;;;7.00;99.90;;;;;;4975235;28;20205;-46
2021/01/21 11:28:20;;;;;;;18.05;15.27;;;7.00;99.90;;;;;;4983654;28;20201;-49
2021/01/21 11:30:50;;;;;;;16.60;15.05;;;7.00;99.90;;;;;;4983429;28;20592;-45
2021/01/21 11:33:22;;;;;;;17.08;15.27;;;7.00;99.90;;;;;;4983398;28;20255;-47
2021/01/21 11:36:07;;;;;;;15.50;14.02;;;7.10;99.90;;;;;;4978165;28;20608;-44
2021/01/21 11:38:37;;;;;;;17.77;14.55;;;7.20;99.90;;;;;;4983930;28;20292;-46
2021/01/21 11:41:07;;;;;;;14.50;13.10;;;7.20;99.90;;;;;;4983386;28;20216;-44
2021/01/21 11:43:38;;;;;;;15.40;13.90;;;7.20;99.90;;;;;;4983258;28;20285;-43
2021/01/21 11:46:08;;;;;;;15.20;13.60;;;7.10;99.90;;;;;;4976981;28;20205;-44
2021/01/21 11:48:39;;;;;;;15.38;13.88;;;7.00;99.90;;;;;;4967920;28;20216;-46
2021/01/21 11:51:09;;;;;;;16.70;15.00;;;6.90;99.90;;;;;;4983098;28;20219;-47
2021/01/21 11:53:39;;;;;;;15.52;13.90;;;6.90;99.90;;;;;;4982611;28;20197;-44
2021/01/21 11:56:09;;;;;;;15.98;14.45;;;6.90;99.90;;;;;;4972709;28;20196;-47
2021/01/21 11:58:47;;;;;;;16.65;15.00;;;6.90;99.90;;;;;;4983655;28;20200;-48
2021/01/21 12:01:17;;;;;;;16.10;14.45;;;6.90;99.90;;;;;;4980826;28;20224;-50
2021/01/21 12:03:48;;;;;;;17.85;16.05;;;7.00;99.90;;;;;;4976583;28;20250;-52
2021/01/21 12:06:20;;;;;;;17.17;15.00;;;7.00;99.90;;;;;;4974827;28;20207;-49
2021/01/21 12:08:50;;;;;;;18.77;16.98;;;7.00;99.90;;;;;;4982026;28;20205;-44
2021/01/21 12:11:21;;;;;;;17.33;15.63;;;7.10;99.90;;;;;;4970348;28;20309;-45
2021/01/21 12:13:52;;;;;;;18.23;16.40;;;7.10;99.90;;;;;;4979435;28;20267;-46
2021/01/21 12:16:22;;;;;;;17.40;15.80;;;7.10;99.90;;;;;;4973322;28;20215;-50
2021/01/21 12:18:54;;;;;;;17.15;15.50;;;6.90;99.90;;;;;;4973455;28;20651;-50
2021/01/21 12:21:24;;;;;;;14.73;13.38;;;6.80;99.90;;;;;;4976663;28;20201;-50
2021/01/21 12:23:54;;;;;;;15.00;13.15;;;6.70;99.90;;;;;;4982900;28;20584;-49
2021/01/21 12:26:24;;;;;;;15.15;13.55;;;6.80;99.90;;;;;;4980961;28;20205;-52
2021/01/21 12:28:54;;;;;;;15.27;13.68;;;6.80;99.90;;;;;;4982346;28;20243;-48
2021/01/21 12:31:24;;;;;;;15.00;13.50;;;6.70;99.90;;;;;;4983334;28;20205;-48
2021/01/21 12:33:56;;;;;;;15.30;13.90;;;6.80;99.90;;;;;;4982490;28;20208;-53
2021/01/21 12:36:26;;;;;;;15.38;13.98;;;6.80;99.90;;;;;;4976110;28;20274;-53
2021/01/21 12:38:56;;;;;;;15.85;14.20;;;6.70;99.90;;;;;;4969518;28;20201;-53
2021/01/21 12:41:26;;;;;;;14.10;12.68;;;6.80;99.90;;;;;;4973548;28;20201;-51
2021/01/21 12:43:56;;;;;;;15.07;13.73;;;6.80;99.90;;;;;;4971349;28;20208;-53
2021/01/21 12:46:28;;;;;;;15.98;14.30;;;6.80;99.90;;;;;;4968801;28;20205;-53
2021/01/21 12:48:59;;;;;;;14.45;12.32;;;6.80;99.90;;;;;;4973928;28;20209;-54
2021/01/21 12:51:29;;;;;;;15.60;13.38;;;6.70;99.90;;;;;;4977331;28;20189;-52
2021/01/21 12:53:59;;;;;;;14.98;13.57;;;6.70;99.90;;;;;;4973314;28;20208;-52
2021/01/21 12:56:29;;;;;;;15.27;13.85;;;6.80;99.90;;;;;;4982584;28;20232;-53
2021/01/21 12:58:59;;;;;;;15.10;13.70;;;6.90;99.90;;;;;;4978716;28;20233;-52
2021/01/21 13:01:30;;;;;;;16.13;14.38;;;7.00;99.90;;;;;;4978504;28;20300;-53
2021/01/21 13:04:01;;;;;;;13.68;12.27;;;6.90;99.90;;;;;;4969401;28;20216;-54
2021/01/21 13:06:32;;;;;;;14.48;13.07;;;6.90;99.90;;;;;;4969638;28;20603;-54
2021/01/21 13:09:02;;;;;;;15.20;13.75;;;6.80;99.90;;;;;;4973834;28;20236;-54
2021/01/21 13:11:32;;;;;;;14.57;13.13;;;6.90;99.90;;;;;;4968966;28;20241;-53
2021/01/21 13:14:03;;;;;;;13.23;11.93;;;6.80;99.90;;;;;;4975361;28;20205;-54